Time;durP1;ratioP1;P1;durP2;ratioP2;P2;SDS_P1;SDS_P2;PMS_P1;PMS_P2;Temp;Humidity;BMP_temperature;BMP_pressure;BME280_temperature;BME280_humidity;BME280_pressure;Samples;Min_cycle;Max_cycle;Signal;HPM_P1;HPM_P2
2023/10/01 00:01:26;;;;;;;12.93;3.90;;;14.50;99.90;;;;;;7293714;19;20689;-82
2023/10/01 00:03:55;;;;;;;15.50;3.93;;;14.50;99.90;;;;;;7298511;19;20189;-82
2023/10/01 00:06:31;;;;;;;10.33;4.03;;;14.60;99.90;;;;;;7300030;19;20194;-82
2023/10/01 00:08:57;;;;;;;13.50;4.30;;;14.60;99.90;;;;;;7296241;19;20182;-82
2023/10/01 00:11:25;;;;;;;12.57;4.00;;;14.40;99.90;;;;;;7300537;19;20195;-83
2023/10/01 00:13:56;;;;;;;10.20;3.87;;;14.50;99.90;;;;;;7299755;19;20190;-81
2023/10/01 00:16:23;;;;;;;11.87;4.47;;;14.50;99.90;;;;;;7296276;19;20193;-82
2023/10/01 00:18:49;;;;;;;15.37;4.10;;;14.50;99.90;;;;;;7304829;19;20185;-82
2023/10/01 00:21:17;;;;;;;12.00;4.27;;;14.50;99.90;;;;;;7304110;19;20181;-82
2023/10/01 00:23:44;;;;;;;13.83;4.40;;;14.50;99.90;;;;;;7302740;19;20214;-82
2023/10/01 00:26:10;;;;;;;11.60;3.83;;;14.60;99.90;;;;;;7303455;19;20193;-82
2023/10/01 00:28:45;;;;;;;13.43;4.00;;;14.50;99.90;;;;;;7305635;19;20194;-82
2023/10/01 00:31:11;;;;;;;11.83;3.97;;;14.50;99.90;;;;;;7303743;19;20191;-82
2023/10/01 00:33:47;;;;;;;12.23;4.60;;;14.50;99.90;;;;;;7309403;19;20235;-82
2023/10/01 00:36:23;;;;;;;13.07;5.03;;;14.50;99.90;;;;;;7300537;19;20191;-81
2023/10/01 00:38:50;;;;;;;12.23;4.23;;;14.60;99.90;;;;;;7299520;19;20183;-81
2023/10/01 00:41:16;;;;;;;11.20;4.23;;;14.60;99.90;;;;;;7303828;19;20188;-82
2023/10/01 00:43:44;;;;;;;13.40;4.30;;;14.60;99.90;;;;;;7303649;19;20195;-82
2023/10/01 00:46:11;;;;;;;13.17;5.00;;;14.60;99.90;;;;;;7304063;19;20193;-82
2023/10/01 00:48:42;;;;;;;11.03;4.03;;;14.60;99.90;;;;;;7318401;19;20191;-80
2023/10/01 00:51:10;;;;;;;12.53;4.67;;;14.50;99.90;;;;;;7302130;19;20191;-81
2023/10/01 00:53:39;;;;;;;12.57;5.03;;;14.50;99.90;;;;;;7320798;19;20194;-81
2023/10/01 00:56:05;;;;;;;13.80;4.60;;;14.40;99.90;;;;;;7326245;19;20224;-82
2023/10/01 00:58:34;;;;;;;14.73;5.10;;;14.50;99.90;;;;;;7300305;19;20189;-82
2023/10/01 01:01:00;;;;;;;16.50;4.70;;;14.60;99.90;;;;;;7303137;19;20188;-82
2023/10/01 01:03:27;;;;;;;14.90;4.67;;;14.60;99.90;;;;;;7303588;19;20213;-82
2023/10/01 01:08:46;;;;;;;14.73;4.97;;;14.60;99.90;;;;;;7303969;19;20193;-80
2023/10/01 01:11:18;;;;;;;10.53;4.43;;;14.60;99.90;;;;;;7201759;19;2006227;-82
2023/10/01 01:13:51;;;;;;;17.03;4.97;;;14.70;99.90;;;;;;7299851;19;20531;-81
2023/10/01 01:16:19;;;;;;;13.50;5.70;;;14.70;99.90;;;;;;7298054;19;20186;-82
2023/10/01 01:18:56;;;;;;;11.30;4.53;;;14.60;99.90;;;;;;7301516;19;20194;-82
2023/10/01 01:21:23;;;;;;;16.97;5.27;;;14.70;99.90;;;;;;7300468;19;20188;-83
2023/10/01 01:23:50;;;;;;;13.37;4.80;;;14.70;99.90;;;;;;7300079;19;20195;-83
2023/10/01 01:26:25;;;;;;;13.93;5.00;;;14.70;99.90;;;;;;7301578;19;20476;-82
2023/10/01 01:28:52;;;;;;;17.37;5.27;;;14.60;99.90;;;;;;7299616;19;20277;-82
2023/10/01 01:31:27;;;;;;;13.27;4.90;;;14.60;99.90;;;;;;7303220;19;20203;-82
2023/10/01 01:34:03;;;;;;;13.17;4.17;;;14.70;99.90;;;;;;7301724;19;20203;-82
2023/10/01 01:36:34;;;;;;;13.63;5.27;;;14.60;99.90;;;;;;7301881;19;20649;-82
2023/10/01 01:39:13;;;;;;;14.17;5.20;;;14.60;99.90;;;;;;7303951;19;21056;-82
2023/10/01 01:41:51;;;;;;;15.27;5.20;;;14.60;99.90;;;;;;7281372;19;20191;-82
2023/10/01 01:44:19;;;;;;;16.17;5.27;;;14.60;99.90;;;;;;7301712;19;20199;-82
2023/10/01 01:47:00;;;;;;;15.83;5.17;;;14.60;99.90;;;;;;7302894;19;20230;-82
2023/10/01 01:49:29;;;;;;;17.30;5.33;;;14.70;99.90;;;;;;7304248;19;20684;-82
2023/10/01 01:52:05;;;;;;;15.40;5.40;;;14.80;99.90;;;;;;7302709;19;20187;-82
2023/10/01 01:54:45;;;;;;;16.03;5.27;;;14.70;99.90;;;;;;7302989;19;20191;-83
2023/10/01 01:57:17;;;;;;;14.40;5.00;;;14.70;99.90;;;;;;7198543;19;2004603;-82
2023/10/01 01:59:46;;;;;;;16.90;6.03;;;14.70;99.90;;;;;;7305578;19;20195;-82
2023/10/01 02:02:14;;;;;;;15.87;5.37;;;14.70;99.90;;;;;;7302707;19;20200;-82
2023/10/01 02:05:00;;;;;;;12.90;5.63;;;14.70;99.90;;;;;;7299265;19;20190;-81
2023/10/01 02:07:33;;;;;;;15.40;5.70;;;14.70;99.90;;;;;;7302893;19;20208;-82
2023/10/01 02:10:08;;;;;;;18.37;6.37;;;14.70;99.90;;;;;;7302754;19;20190;-82
2023/10/01 02:12:36;;;;;;;15.27;5.80;;;14.70;99.90;;;;;;7302792;19;20207;-82
2023/10/01 02:15:09;;;;;;;16.13;5.97;;;14.70;99.90;;;;;;7368442;19;20254;-83
2023/10/01 02:17:44;;;;;;;15.67;6.17;;;14.80;99.90;;;;;;7416312;19;20144;-82
2023/10/01 02:20:20;;;;;;;18.00;6.23;;;14.80;99.90;;;;;;7417765;19;20168;-82
2023/10/01 02:22:47;;;;;;;19.93;6.80;;;14.90;99.90;;;;;;7419782;19;20159;-82
2023/10/01 02:25:36;;;;;;;17.27;6.00;;;15.00;99.90;;;;;;7418543;19;20160;-82
2023/10/01 02:28:14;;;;;;;18.30;6.70;;;15.10;99.90;;;;;;7317693;19;20275;-82
2023/10/01 02:31:00;;;;;;;17.63;7.00;;;15.20;99.90;;;;;;7282111;19;20190;-82
2023/10/01 02:36:22;;;;;;;18.30;6.60;;;15.40;99.90;;;;;;7189639;19;2006223;-82
2023/10/01 02:38:57;;;;;;;17.23;6.37;;;15.40;99.90;;;;;;7305876;19;20199;-83
2023/10/01 02:41:31;;;;;;;14.20;5.60;;;15.40;99.90;;;;;;7326731;19;20205;-82
2023/10/01 02:44:01;;;;;;;17.17;6.70;;;15.50;99.90;;;;;;7305516;19;20246;-82
2023/10/01 02:46:30;;;;;;;20.27;7.07;;;15.50;99.90;;;;;;7288151;19;20235;-82
2023/10/01 02:49:12;;;;;;;19.13;6.63;;;15.50;99.90;;;;;;7303830;19;20289;-82
2023/10/01 02:51:39;;;;;;;17.00;7.30;;;15.50;99.90;;;;;;7291299;19;20185;-81
2023/10/01 02:54:09;;;;;;;16.70;6.60;;;15.60;99.90;;;;;;7325902;19;20263;-83
2023/10/01 02:56:53;;;;;;;21.30;7.30;;;15.60;99.90;;;;;;7303619;19;20189;-83
2023/10/01 02:59:28;;;;;;;17.40;6.73;;;15.60;99.90;;;;;;7185405;19;2004465;-82
2023/10/01 03:01:55;;;;;;;18.83;7.00;;;15.70;99.90;;;;;;7289612;19;20699;-83
2023/10/01 03:04:29;;;;;;;18.30;7.07;;;15.70;99.90;;;;;;7301923;19;20190;-83
2023/10/01 03:06:56;;;;;;;19.37;7.27;;;15.70;99.90;;;;;;7293090;19;20202;-82
2023/10/01 03:09:31;;;;;;;21.07;7.80;;;15.80;99.90;;;;;;7272255;19;20193;-82
2023/10/01 03:17:39;;;;;;;13.83;6.00;;;15.70;99.90;;;;;;7302632;19;20196;-83
2023/10/01 03:20:58;;;;;;;16.47;5.93;;;15.60;99.90;;;;;;7301924;19;20207;-83
2023/10/01 03:23:01;;;;;;;15.87;5.97;;;15.40;99.90;;;;;;7200619;19;2004596;-82
2023/10/01 03:26:11;;;;;;;15.17;5.70;;;15.30;99.90;;;;;;7302209;19;20267;-82
2023/10/01 03:31:37;;;;;;;15.83;5.63;;;15.00;99.90;;;;;;7200112;19;2004537;-83
2023/10/01 03:34:28;;;;;;;15.50;5.73;;;14.80;99.90;;;;;;7303817;19;20187;-82
2023/10/01 03:37:00;;;;;;;15.83;6.13;;;14.70;99.90;;;;;;7200740;19;2004626;-81
2023/10/01 03:39:35;;;;;;;15.17;6.13;;;14.60;99.90;;;;;;7303850;19;20197;-82
2023/10/01 03:42:17;;;;;;;14.37;5.77;;;14.50;99.90;;;;;;7302880;19;20191;-83
2023/10/01 03:47:41;;;;;;;15.50;5.70;;;14.50;99.90;;;;;;7306845;19;20255;-83
2023/10/01 03:50:09;;;;;;;18.03;6.80;;;14.50;99.90;;;;;;7276428;19;20200;-81
2023/10/01 03:52:51;;;;;;;15.23;6.07;;;14.60;99.90;;;;;;7330720;19;20215;-81
2023/10/01 03:55:30;;;;;;;17.37;6.87;;;14.60;99.90;;;;;;7204961;19;2004703;-82
2023/10/01 04:03:13;;;;;;;17.67;7.23;;;14.70;99.90;;;;;;7309184;19;20205;-82
2023/10/01 04:05:46;;;;;;;18.30;6.60;;;14.80;99.90;;;;;;7284750;19;20193;-82
2023/10/01 04:08:19;;;;;;;19.70;7.50;;;14.90;99.90;;;;;;7308385;19;20539;-82
2023/10/01 04:10:58;;;;;;;20.07;8.03;;;14.90;99.90;;;;;;7309222;19;20210;-83
2023/10/01 04:13:28;;;;;;;18.43;7.60;;;14.90;99.90;;;;;;7313106;19;20209;-82
2023/10/01 04:16:07;;;;;;;17.77;8.27;;;15.00;99.90;;;;;;7309049;19;20232;-82
2023/10/01 04:18:48;;;;;;;19.50;7.80;;;15.00;99.90;;;;;;7311225;19;20268;-82
2023/10/01 04:21:25;;;;;;;18.03;6.77;;;15.00;99.90;;;;;;7206746;19;2004888;-82
2023/10/01 04:23:51;;;;;;;17.87;7.03;;;14.90;99.90;;;;;;7311489;19;20205;-82
2023/10/01 04:26:23;;;;;;;19.63;7.40;;;14.90;99.90;;;;;;7306944;19;20191;-82
2023/10/01 04:28:54;;;;;;;16.53;6.53;;;14.80;99.90;;;;;;7307995;19;20196;-83
2023/10/01 04:34:15;;;;;;;20.03;7.67;;;14.70;99.90;;;;;;7202427;19;2004643;-83
2023/10/01 04:36:53;;;;;;;19.60;7.37;;;14.70;99.90;;;;;;7305710;19;20190;-82
2023/10/01 04:39:23;;;;;;;18.93;7.67;;;14.80;99.90;;;;;;7307108;19;20192;-82
2023/10/01 04:41:58;;;;;;;19.77;7.63;;;14.90;99.90;;;;;;7306033;19;20190;-82
2023/10/01 04:44:27;;;;;;;18.23;7.67;;;15.00;99.90;;;;;;7303831;19;20212;-82
2023/10/01 04:46:55;;;;;;;21.23;7.97;;;15.00;99.90;;;;;;7306110;19;20196;-82
2023/10/01 04:49:27;;;;;;;21.13;7.60;;;15.10;99.90;;;;;;7303851;19;20205;-82
2023/10/01 04:52:10;;;;;;;22.40;7.70;;;15.10;99.90;;;;;;7305254;19;20531;-82
2023/10/01 04:54:49;;;;;;;20.37;7.77;;;15.20;99.90;;;;;;7284172;19;20187;-82
2023/10/01 04:57:16;;;;;;;19.53;7.50;;;15.30;99.90;;;;;;7302828;19;20259;-82
2023/10/01 04:59:57;;;;;;;23.17;8.10;;;15.40;99.90;;;;;;7307065;19;20187;-81
2023/10/01 05:02:25;;;;;;;21.13;8.03;;;15.40;99.90;;;;;;7306645;19;20201;-82
2023/10/01 05:05:08;;;;;;;19.27;7.90;;;15.40;99.90;;;;;;7306985;19;20202;-82
2023/10/01 05:07:39;;;;;;;20.80;8.37;;;15.50;99.90;;;;;;7297607;19;20259;-82
2023/10/01 05:10:08;;;;;;;19.33;7.50;;;15.50;99.90;;;;;;7326800;19;20250;-82
2023/10/01 05:12:43;;;;;;;20.53;8.27;;;15.50;99.90;;;;;;7308018;19;20194;-82
2023/10/01 05:15:17;;;;;;;20.23;7.30;;;15.60;99.90;;;;;;7284892;19;20523;-82
2023/10/01 05:17:49;;;;;;;19.40;8.10;;;15.60;99.90;;;;;;7307408;19;20267;-83
2023/10/01 05:20:17;;;;;;;19.23;7.57;;;15.60;99.90;;;;;;7306112;19;20191;-82
2023/10/01 05:22:54;;;;;;;19.03;8.20;;;15.60;99.90;;;;;;7305551;19;20191;-81
2023/10/01 05:25:26;;;;;;;21.30;8.33;;;15.60;99.90;;;;;;7305245;19;20207;-83
2023/10/01 05:27:55;;;;;;;22.93;7.67;;;15.70;99.90;;;;;;7308852;19;20200;-82
2023/10/01 05:30:42;;;;;;;22.40;8.87;;;15.80;99.90;;;;;;7304506;19;20196;-82
2023/10/01 05:33:24;;;;;;;21.57;8.17;;;15.80;99.90;;;;;;7294955;19;20220;-83
2023/10/01 05:35:57;;;;;;;19.47;7.80;;;15.80;99.90;;;;;;7305879;19;20193;-82
2023/10/01 05:38:26;;;;;;;21.20;8.23;;;15.80;99.90;;;;;;7303772;19;20204;-82
2023/10/01 05:40:56;;;;;;;20.50;7.53;;;15.80;99.90;;;;;;7308037;19;20190;-82
2023/10/01 05:43:27;;;;;;;19.20;8.10;;;15.80;99.90;;;;;;7308524;19;20232;-82
2023/10/01 05:46:01;;;;;;;18.33;7.63;;;15.70;99.90;;;;;;7303129;19;20227;-83
2023/10/01 05:48:29;;;;;;;21.57;7.97;;;15.60;99.90;;;;;;7304186;19;20204;-82
2023/10/01 05:50:58;;;;;;;22.03;8.13;;;15.60;99.90;;;;;;7304032;19;20192;-82
2023/10/01 05:53:28;;;;;;;20.10;7.80;;;15.60;99.90;;;;;;7305982;19;20207;-82
2023/10/01 05:56:10;;;;;;;22.73;8.17;;;15.60;99.90;;;;;;7307801;19;20192;-82
2023/10/01 05:58:44;;;;;;;19.73;7.23;;;15.60;99.90;;;;;;7281789;19;20188;-82
2023/10/01 06:01:21;;;;;;;20.73;8.27;;;15.60;99.90;;;;;;7307486;19;20203;-82
2023/10/01 06:03:55;;;;;;;21.43;8.30;;;15.60;99.90;;;;;;7305906;19;20266;-82
2023/10/01 06:06:36;;;;;;;20.63;8.50;;;15.50;99.90;;;;;;7305101;19;20199;-83
2023/10/01 06:09:09;;;;;;;21.63;8.37;;;15.50;99.90;;;;;;7304284;19;20261;-83
2023/10/01 06:11:38;;;;;;;20.77;8.33;;;15.60;99.90;;;;;;7283957;19;20187;-82
2023/10/01 06:17:00;;;;;;;22.57;7.73;;;15.60;99.90;;;;;;7197310;19;2004586;-82
2023/10/01 06:19:32;;;;;;;22.13;8.20;;;15.70;99.90;;;;;;7299270;19;20188;-83
2023/10/01 06:25:01;;;;;;;21.47;8.47;;;15.70;99.90;;;;;;7200095;19;2004526;-82
2023/10/01 06:27:30;;;;;;;17.47;7.47;;;15.80;99.90;;;;;;7305084;19;20202;-82
2023/10/01 06:30:08;;;;;;;20.50;7.97;;;16.00;99.90;;;;;;7302296;19;20189;-83
2023/10/01 06:32:39;;;;;;;19.93;7.50;;;17.00;99.90;;;;;;7302495;19;20185;-83
2023/10/01 06:35:14;;;;;;;18.03;7.73;;;18.60;99.90;;;;;;7304855;19;20232;-82
2023/10/01 06:37:59;;;;;;;15.57;6.60;;;20.00;99.90;;;;;;7278580;19;20212;-83
2023/10/01 06:40:31;;;;;;;21.17;7.47;;;21.40;99.90;;;;;;7299165;19;20198;-83
2023/10/01 06:43:06;;;;;;;17.03;7.00;;;22.50;99.90;;;;;;7298605;19;20204;-83
2023/10/01 06:45:44;;;;;;;17.50;7.23;;;23.10;99.90;;;;;;7297751;19;20181;-84
2023/10/01 06:48:14;;;;;;;15.00;6.97;;;23.60;99.90;;;;;;7290329;19;20192;-82
2023/10/01 06:50:46;;;;;;;17.97;8.07;;;24.60;99.90;;;;;;7312677;19;20188;-82
2023/10/01 06:53:13;;;;;;;19.23;8.13;;;25.20;99.90;;;;;;7315853;19;20189;-83
2023/10/01 06:55:39;;;;;;;19.77;8.13;;;25.20;99.90;;;;;;7304032;19;20195;-83
2023/10/01 06:58:07;;;;;;;19.33;7.90;;;25.70;99.90;;;;;;7328027;19;20177;-84
2023/10/01 07:00:36;;;;;;;18.42;8.07;;;25.50;99.90;;;;;;7304575;19;20199;-82
2023/10/01 07:03:18;;;;;;;18.40;8.10;;;25.20;99.90;;;;;;7305019;19;20177;-83
2023/10/01 07:05:52;;;;;;;17.63;7.63;;;25.00;99.90;;;;;;7198993;19;2004597;-83
2023/10/01 07:08:21;;;;;;;16.92;7.63;;;25.30;99.90;;;;;;7301349;19;20196;-84
2023/10/01 07:10:50;;;;;;;18.65;7.75;;;25.60;99.90;;;;;;7302900;19;20197;-82
2023/10/01 07:13:17;;;;;;;20.92;7.93;;;25.90;99.90;;;;;;7302620;19;20292;-83
2023/10/01 07:15:52;;;;;;;19.67;7.93;;;25.50;99.90;;;;;;7300930;19;20196;-84
2023/10/01 07:18:19;;;;;;;18.50;8.00;;;26.30;99.90;;;;;;7300858;19;20192;-82
2023/10/01 07:20:49;;;;;;;20.17;8.18;;;26.60;99.90;;;;;;7303157;19;20193;-83
2023/10/01 07:23:21;;;;;;;19.63;7.53;;;27.50;99.90;;;;;;7301984;19;20210;-83
2023/10/01 07:26:12;;;;;;;17.52;7.60;;;28.40;99.90;;;;;;7297435;19;20206;-83
2023/10/01 07:29:01;;;;;;;19.98;7.53;;;28.40;99.90;;;;;;7288669;19;20747;-82
2023/10/01 07:31:35;;;;;;;18.98;7.85;;;29.30;99.90;;;;;;7300394;19;20206;-84
2023/10/01 07:34:14;;;;;;;18.92;7.97;;;28.80;99.90;;;;;;7306418;19;20675;-84
2023/10/01 07:36:42;;;;;;;18.55;8.27;;;29.10;99.90;;;;;;7279874;19;20184;-83
2023/10/01 07:39:15;;;;;;;18.02;8.25;;;28.30;99.90;;;;;;7314669;19;20189;-82
2023/10/01 07:41:59;;;;;;;17.98;8.48;;;28.30;99.90;;;;;;7304471;19;20188;-84
2023/10/01 07:44:27;;;;;;;18.67;8.00;;;28.10;99.90;;;;;;7303284;19;20188;-83
2023/10/01 07:47:02;;;;;;;16.05;7.85;;;28.70;99.90;;;;;;7303165;19;20185;-84
2023/10/01 07:49:56;;;;;;;18.08;7.93;;;29.00;99.90;;;;;;7300591;19;20236;-84
2023/10/01 07:52:23;;;;;;;18.48;7.78;;;30.10;99.90;;;;;;7196060;19;2004779;-84
2023/10/01 07:54:55;;;;;;;17.48;7.97;;;30.30;99.90;;;;;;7302248;19;20196;-84
2023/10/01 07:57:27;;;;;;;16.75;8.10;;;30.20;99.90;;;;;;7301245;19;20189;-84
2023/10/01 08:00:00;;;;;;;17.65;8.25;;;29.90;99.90;;;;;;7299974;19;20196;-85
2023/10/01 08:03:28;;;;;;;18.52;8.00;;;29.50;99.90;;;;;;7299384;19;20185;-83
2023/10/01 08:05:33;;;;;;;20.55;8.77;;;29.00;99.90;;;;;;7196318;19;2006015;-84
2023/10/01 08:08:09;;;;;;;20.02;8.63;;;28.90;99.90;;;;;;7298795;19;20272;-83
2023/10/01 08:10:37;;;;;;;17.25;8.35;;;28.60;99.90;;;;;;7302519;19;20550;-82
2023/10/01 08:13:24;;;;;;;17.30;8.35;;;28.90;99.90;;;;;;7303590;19;20260;-83
2023/10/01 08:15:57;;;;;;;19.42;8.68;;;28.30;99.90;;;;;;7199004;19;2004638;-82
2023/10/01 08:19:05;;;;;;;19.23;8.25;;;27.20;99.90;;;;;;7302519;19;20201;-83
2023/10/01 08:21:50;;;;;;;19.27;8.65;;;25.60;99.90;;;;;;7196531;19;2005055;-83
2023/10/01 08:24:29;;;;;;;17.20;7.97;;;24.50;99.90;;;;;;7200373;19;2004544;-83
2023/10/01 08:27:12;;;;;;;21.52;8.63;;;23.90;99.90;;;;;;7301770;19;20197;-83
2023/10/01 08:32:41;;;;;;;20.77;8.23;;;22.90;99.90;;;;;;7301779;19;20196;-82
2023/10/01 08:35:22;;;;;;;18.83;9.03;;;22.60;99.90;;;;;;7300441;19;20229;-83
2023/10/01 08:38:01;;;;;;;19.17;7.93;;;22.60;99.90;;;;;;7200792;19;2004657;-82
2023/10/01 08:40:30;;;;;;;17.40;7.77;;;22.60;99.90;;;;;;7305193;19;20193;-84
2023/10/01 08:44:08;;;;;;;18.87;7.33;;;22.40;99.90;;;;;;7207378;19;2004463;-84
2023/10/01 08:46:39;;;;;;;16.33;7.57;;;22.40;99.90;;;;;;7202978;19;2004753;-83
2023/10/01 08:49:30;;;;;;;18.27;8.07;;;22.50;99.90;;;;;;7310301;19;20206;-83
2023/10/01 08:54:57;;;;;;;18.53;7.73;;;22.40;99.90;;;;;;7210005;19;2006221;-82
2023/10/01 08:57:45;;;;;;;20.80;7.80;;;22.40;99.90;;;;;;7308460;19;20197;-83
2023/10/01 09:00:20;;;;;;;20.17;8.13;;;22.30;99.90;;;;;;7284785;19;20203;-84
2023/10/01 09:03:10;;;;;;;18.90;8.30;;;22.20;99.90;;;;;;7305727;19;20584;-83
2023/10/01 09:05:46;;;;;;;18.40;7.80;;;22.00;99.90;;;;;;7307985;19;20196;-81
2023/10/01 09:08:31;;;;;;;17.87;7.60;;;21.90;99.90;;;;;;7208473;19;2006192;-83
2023/10/01 09:11:10;;;;;;;22.70;8.40;;;21.80;99.90;;;;;;7309881;19;20213;-83
2023/10/01 09:17:00;;;;;;;19.27;7.80;;;21.90;99.90;;;;;;7228558;19;2004407;-82
2023/10/01 09:19:43;;;;;;;18.47;7.73;;;21.80;99.90;;;;;;7308368;19;20213;-81
2023/10/01 09:22:40;;;;;;;20.87;7.87;;;21.90;99.90;;;;;;7291087;19;20232;-82
2023/10/01 09:25:39;;;;;;;;;;;;;;;;;;;;;
2023/10/01 09:28:37;;;;;;;21.47;8.43;;;22.10;99.90;;;;;;7106433;19;2004334;-82
2023/10/01 09:31:31;;;;;;;18.00;7.40;;;22.10;99.90;;;;;;7328463;19;20219;-83
2023/10/01 09:34:31;;;;;;;17.90;7.73;;;22.30;99.90;;;;;;7233748;19;2004355;-81
2023/10/01 09:43:29;;;;;;;17.80;7.23;;;22.80;99.90;;;;;;7197900;19;2006161;-82
2023/10/01 09:46:01;;;;;;;17.20;7.00;;;23.00;99.90;;;;;;7204201;19;2004616;-82
2023/10/01 09:48:48;;;;;;;17.20;7.27;;;24.30;99.90;;;;;;7307418;19;20650;-81
2023/10/01 09:51:23;;;;;;;18.98;7.53;;;25.60;99.90;;;;;;7205933;19;2004824;-82
2023/10/01 09:54:02;;;;;;;16.70;6.72;;;27.40;99.90;;;;;;7308393;19;20191;-82
2023/10/01 09:59:11;;;;;;;17.85;7.50;;;31.40;99.90;;;;;;7308033;19;20185;-82
2023/10/01 10:01:39;;;;;;;14.20;6.72;;;32.50;99.90;;;;;;7302847;19;20217;-84
2023/10/01 10:04:06;;;;;;;15.57;6.85;;;33.40;99.90;;;;;;7296321;19;20189;-82
2023/10/01 10:06:59;;;;;;;16.77;7.40;;;34.10;99.90;;;;;;7305309;19;20185;-83
2023/10/01 10:09:26;;;;;;;16.17;7.30;;;34.70;99.90;;;;;;7206184;19;2004475;-83
2023/10/01 10:12:01;;;;;;;16.85;7.70;;;33.70;97.50;;;;;;7304210;19;20192;-83
2023/10/01 10:14:33;;;;;;;14.90;7.43;;;34.30;96.80;;;;;;7308558;19;20188;-80
2023/10/01 10:17:18;;;;;;;14.75;6.85;;;33.70;96.40;;;;;;7306590;19;20653;-82
2023/10/01 10:23:19;;;;;;;16.15;7.80;;;35.00;95.20;;;;;;7202327;19;2004406;-81
2023/10/01 10:27:00;;;;;;;14.13;7.22;;;33.60;94.00;;;;;;7305577;19;20181;-82
2023/10/01 10:29:56;;;;;;;16.80;7.40;;;32.90;95.40;;;;;;6993704;19;2004778;-84
2023/10/01 10:33:09;;;;;;;14.88;7.63;;;34.10;95.60;;;;;;7305793;19;20553;-83
2023/10/01 10:35:46;;;;;;;15.90;7.68;;;35.60;93.90;;;;;;7204574;19;2004446;-85
2023/10/01 10:38:51;;;;;;;16.60;7.03;;;35.50;91.60;;;;;;7282653;19;20181;-83
2023/10/01 10:41:35;;;;;;;15.00;7.85;;;35.60;91.00;;;;;;7182912;19;2004850;-82
2023/10/01 10:44:09;;;;;;;15.45;7.30;;;35.90;90.00;;;;;;7310056;19;20172;-81
2023/10/01 10:47:11;;;;;;;16.58;7.85;;;35.50;89.00;;;;;;7195716;19;2004670;-83
2023/10/01 10:50:15;;;;;;;16.98;7.63;;;35.00;90.00;;;;;;7209681;19;2004457;-84
2023/10/01 10:52:59;;;;;;;13.93;7.15;;;35.20;89.00;;;;;;7228368;19;2004476;-84
2023/10/01 10:55:36;;;;;;;16.50;7.70;;;35.70;90.20;;;;;;7331966;19;20208;-82
2023/10/01 10:58:38;;;;;;;17.45;7.45;;;35.10;87.60;;;;;;7206592;19;2005705;-84
2023/10/01 11:01:19;;;;;;;16.73;7.43;;;33.30;90.60;;;;;;7313061;19;20240;-82
2023/10/01 11:04:06;;;;;;;19.98;8.00;;;33.60;91.00;;;;;;7206306;19;2004811;-84
2023/10/01 11:07:04;;;;;;;16.23;7.03;;;34.00;90.50;;;;;;7208295;19;2004630;-84
2023/10/01 11:09:35;;;;;;;15.57;8.00;;;33.90;90.80;;;;;;7306531;19;20196;-85
2023/10/01 11:12:22;;;;;;;18.15;7.50;;;34.70;90.30;;;;;;7334535;19;20176;-82
2023/10/01 11:15:30;;;;;;;17.52;7.10;;;34.40;88.90;;;;;;7309950;19;20184;-85
2023/10/01 11:18:09;;;;;;;17.90;7.63;;;35.20;89.40;;;;;;7202834;19;2004549;-81
2023/10/01 11:21:00;;;;;;;16.85;7.88;;;34.70;87.40;;;;;;7289619;19;20229;-83
2023/10/01 11:23:27;;;;;;;15.00;6.50;;;34.40;87.40;;;;;;7331789;19;20766;-85
2023/10/01 11:26:26;;;;;;;18.88;7.90;;;34.20;86.90;;;;;;7283509;19;20202;-83
2023/10/01 11:29:01;;;;;;;18.00;8.48;;;33.30;88.70;;;;;;7327400;19;20188;-82
2023/10/01 11:31:31;;;;;;;16.35;7.80;;;33.60;88.70;;;;;;7325726;19;20690;-84
2023/10/01 11:34:21;;;;;;;15.48;8.00;;;33.50;90.00;;;;;;7290531;19;20188;-83
2023/10/01 11:37:13;;;;;;;18.15;9.40;;;33.70;90.10;;;;;;7205456;19;2005819;-82
2023/10/01 11:39:52;;;;;;;19.02;10.32;;;34.10;89.20;;;;;;7293489;19;20188;-83
2023/10/01 11:42:52;;;;;;;18.42;9.05;;;33.80;89.00;;;;;;7279418;19;20195;-84
2023/10/01 11:45:34;;;;;;;17.83;9.10;;;34.50;86.70;;;;;;7167560;19;2004759;-83
2023/10/01 11:48:19;;;;;;;18.25;9.02;;;34.60;88.70;;;;;;7307051;19;21006;-83
2023/10/01 11:50:51;;;;;;;17.83;8.32;;;34.60;85.60;;;;;;7187485;19;2004379;-84
2023/10/01 11:53:33;;;;;;;17.80;8.85;;;34.40;85.30;;;;;;7331591;19;20177;-85
2023/10/01 11:56:14;;;;;;;17.88;8.93;;;34.20;85.00;;;;;;7332180;19;20201;-85
2023/10/01 11:58:44;;;;;;;17.70;9.32;;;33.20;86.10;;;;;;7329187;19;20224;-84
2023/10/01 12:01:38;;;;;;;18.20;9.40;;;32.90;87.50;;;;;;7398673;19;20197;-83
2023/10/01 12:07:33;;;;;;;16.73;7.82;;;33.20;91.10;;;;;;7248189;19;2004561;-83
2023/10/01 12:10:32;;;;;;;16.85;8.13;;;33.30;88.80;;;;;;7229392;19;2004710;-82
2023/10/01 12:13:28;;;;;;;16.02;8.70;;;34.40;89.90;;;;;;7316091;19;20220;-86
2023/10/01 12:16:20;;;;;;;17.65;8.57;;;34.50;87.90;;;;;;7279236;19;20184;-83
2023/10/01 12:21:48;;;;;;;16.85;8.48;;;34.20;87.10;;;;;;7310557;19;20189;-82
2023/10/01 12:24:15;;;;;;;18.38;8.13;;;34.50;87.70;;;;;;7284648;19;20180;-83
2023/10/01 12:27:00;;;;;;;17.67;8.18;;;34.80;88.30;;;;;;7333869;19;20185;-83
2023/10/01 12:32:07;;;;;;;15.32;8.43;;;34.20;86.70;;;;;;7310878;19;20199;-83
2023/10/01 12:34:35;;;;;;;16.85;8.70;;;33.60;86.40;;;;;;7311100;19;20650;-82
2023/10/01 12:40:16;;;;;;;20.10;9.52;;;33.30;87.40;;;;;;7086156;19;2004447;-82
2023/10/01 12:42:50;;;;;;;16.60;8.48;;;32.80;87.20;;;;;;7314178;19;20184;-83
2023/10/01 12:45:45;;;;;;;16.35;8.75;;;32.60;89.50;;;;;;7312585;19;20195;-84
2023/10/01 12:48:28;;;;;;;18.52;9.10;;;33.00;89.60;;;;;;7208751;19;2004390;-81
2023/10/01 12:51:08;;;;;;;16.85;8.40;;;32.80;88.10;;;;;;7334798;19;20217;-83
2023/10/01 12:53:58;;;;;;;17.92;9.52;;;32.30;88.80;;;;;;7315637;19;20274;-85
2023/10/01 12:59:36;;;;;;;19.50;9.05;;;30.70;91.30;;;;;;7231127;19;2004569;-85
2023/10/01 13:05:20;;;;;;;18.33;8.55;;;30.20;94.60;;;;;;7204176;19;2004764;-85
2023/10/01 13:07:50;;;;;;;19.35;8.95;;;29.90;93.40;;;;;;7181724;19;2004595;-84
2023/10/01 13:10:50;;;;;;;18.95;8.80;;;29.70;93.50;;;;;;7330681;19;20189;-84
2023/10/01 13:13:35;;;;;;;19.92;9.55;;;29.30;93.60;;;;;;7204905;19;2005025;-84
2023/10/01 13:16:16;;;;;;;18.00;9.00;;;28.70;95.30;;;;;;7305151;19;20220;-84
2023/10/01 13:18:49;;;;;;;22.40;9.35;;;28.60;94.80;;;;;;7332285;19;20191;-84
2023/10/01 13:21:16;;;;;;;19.85;9.38;;;28.40;95.60;;;;;;7304554;19;20663;-82
2023/10/01 13:23:42;;;;;;;20.77;9.52;;;28.30;96.40;;;;;;7308831;19;20185;-84
2023/10/01 13:26:32;;;;;;;18.67;9.48;;;28.10;95.90;;;;;;7326207;19;20188;-84
2023/10/01 13:29:28;;;;;;;20.95;10.30;;;27.90;95.60;;;;;;7200622;19;2005738;-81
2023/10/01 13:32:02;;;;;;;20.45;9.70;;;27.80;97.00;;;;;;7300818;19;20211;-83
2023/10/01 13:35:20;;;;;;;21.38;9.07;;;27.70;97.70;;;;;;7304090;19;20208;-84
2023/10/01 13:38:15;;;;;;;18.80;8.70;;;27.60;99.10;;;;;;7093635;19;2004475;-84
2023/10/01 14:09:09;;;;;;;19.20;8.98;;;27.00;99.90;;;;;;7293680;19;20663;-81
2023/10/01 14:11:39;;;;;;;17.80;8.27;;;27.00;99.90;;;;;;7296369;19;20244;-84
2023/10/01 14:14:08;;;;;;;20.40;8.73;;;27.00;99.90;;;;;;7291878;19;20184;-81
2023/10/01 14:16:36;;;;;;;19.98;8.70;;;27.00;99.90;;;;;;7289425;19;20185;-82
2023/10/01 14:19:13;;;;;;;19.27;8.73;;;26.80;99.90;;;;;;7290372;19;20191;-81
2023/10/01 14:21:40;;;;;;;18.98;8.55;;;26.70;99.90;;;;;;7285563;19;20256;-83
2023/10/01 14:24:25;;;;;;;18.80;8.27;;;26.40;99.90;;;;;;7312494;19;20173;-84
2023/10/01 14:26:52;;;;;;;18.17;8.30;;;26.40;99.90;;;;;;7188732;19;2004615;-82
2023/10/01 14:29:24;;;;;;;18.77;9.15;;;26.40;99.90;;;;;;7290747;19;20193;-82
2023/10/01 14:31:53;;;;;;;17.15;8.48;;;26.50;99.90;;;;;;7288534;19;20256;-84
2023/10/01 14:34:20;;;;;;;18.55;9.02;;;26.70;99.90;;;;;;7288777;19;20310;-81
2023/10/01 14:36:48;;;;;;;19.05;8.80;;;26.70;99.90;;;;;;7284764;19;20185;-80
2023/10/01 14:39:14;;;;;;;17.98;8.65;;;26.80;99.90;;;;;;7285483;19;20184;-82
2023/10/01 14:41:45;;;;;;;18.65;8.75;;;26.80;99.90;;;;;;7308007;19;20193;-81
2023/10/01 14:44:15;;;;;;;18.80;8.30;;;26.90;99.90;;;;;;7287663;19;20291;-81
2023/10/01 14:46:47;;;;;;;17.70;8.32;;;26.90;99.90;;;;;;7291338;19;20185;-82
2023/10/01 14:49:17;;;;;;;19.98;9.38;;;26.80;99.90;;;;;;7288356;19;20184;-84
2023/10/01 14:51:53;;;;;;;19.08;9.32;;;26.80;99.90;;;;;;7288603;19;20237;-84
2023/10/01 14:54:19;;;;;;;20.02;9.30;;;26.70;99.90;;;;;;7293103;19;20259;-84
2023/10/01 14:56:55;;;;;;;17.77;8.75;;;26.60;99.90;;;;;;7287655;19;20196;-81
2023/10/01 14:59:31;;;;;;;18.42;9.13;;;26.50;99.90;;;;;;7289192;19;20189;-81
2023/10/01 15:01:57;;;;;;;20.33;8.93;;;26.40;99.90;;;;;;7289387;19;20188;-82